createdAt,value
2018-06-18T00:02:21.031Z,96551.36
2018-06-18T00:04:51.571Z,96552.30
2018-06-18T00:07:21.642Z,96556.56
2018-06-18T00:09:51.581Z,96554.91
2018-06-18T00:12:21.050Z,96553.02
2018-06-18T00:14:50.958Z,96556.63
2018-06-18T00:17:21.436Z,96557.13
2018-06-18T00:19:51.759Z,96552.08
2018-06-18T00:22:21.600Z,96554.56
2018-06-18T00:24:51.691Z,96559.84
2018-06-18T00:27:21.475Z,96558.13
2018-06-18T00:29:51.269Z,96559.10
2018-06-18T00:32:21.098Z,96560.03
2018-06-18T00:34:52.115Z,96552.83
2018-06-18T00:37:21.960Z,96553.30
2018-06-18T00:39:51.827Z,96557.22
2018-06-18T00:42:22.123Z,96556.34
2018-06-18T00:44:51.947Z,96563.77
2018-06-18T00:47:21.781Z,96555.34
2018-06-18T00:49:51.626Z,96557.72
2018-06-18T00:52:21.692Z,96552.13
2018-06-18T00:54:51.582Z,96557.69
2018-06-18T00:57:22.441Z,96551.17
2018-06-18T00:59:52.319Z,96551.09
2018-06-18T01:02:22.411Z,96545.57
2018-06-18T01:04:52.235Z,96539.03
2018-06-18T01:07:22.086Z,96531.79
2018-06-18T01:09:51.979Z,96532.20
2018-06-18T01:12:21.828Z,96534.17
2018-06-18T01:14:51.910Z,96536.33
2018-06-18T01:17:21.797Z,96538.00
2018-06-18T01:19:51.657Z,96545.86
2018-06-18T01:22:22.315Z,96550.44
2018-06-18T01:24:58.145Z,96542.38
2018-06-18T01:27:28.349Z,96547.03
2018-06-18T01:29:58.137Z,96541.88
2018-06-18T01:32:28.414Z,96545.91
2018-06-18T01:34:58.282Z,96544.93
2018-06-18T01:37:28.092Z,96541.73
2018-06-18T01:39:58.082Z,96543.95
2018-06-18T01:42:27.876Z,96541.15
2018-06-18T01:44:58.035Z,96537.46
2018-06-18T01:47:27.848Z,96535.18
2018-06-18T01:49:57.670Z,96533.67
2018-06-18T01:52:27.695Z,96536.12
2018-06-18T01:54:58.443Z,96539.77
2018-06-18T01:57:28.595Z,96536.97
2018-06-18T01:59:58.409Z,96539.31
2018-06-18T02:02:28.266Z,96545.12
2018-06-18T02:04:58.066Z,96546.78
2018-06-18T02:07:27.895Z,96548.91
2018-06-18T02:09:57.749Z,96541.33
2018-06-18T02:12:27.860Z,96546.77
2018-06-18T02:14:58.593Z,96552.33
2018-06-18T02:17:28.929Z,96546.78
2018-06-18T02:19:58.800Z,96546.14
2018-06-18T02:22:28.670Z,96547.19
2018-06-18T02:24:58.624Z,96548.55
2018-06-18T02:27:33.654Z,96550.86
2018-06-18T02:30:08.638Z,96559.47
2018-06-18T02:32:43.610Z,96564.64
2018-06-18T02:35:18.841Z,96562.59
2018-06-18T02:37:53.894Z,96560.16
2018-06-18T02:40:28.796Z,96554.76
2018-06-18T02:42:58.627Z,96553.24
2018-06-18T02:45:28.734Z,96549.44
2018-06-18T02:47:58.549Z,96552.00
2018-06-18T02:50:28.821Z,96549.65
2018-06-18T02:52:58.806Z,96551.70
2018-06-18T02:55:28.734Z,96556.56
2018-06-18T02:57:58.680Z,96570.10
2018-06-18T03:00:28.589Z,96576.84
2018-06-18T03:02:58.598Z,96577.73
2018-06-18T03:05:28.583Z,96582.84
2018-06-18T03:07:59.082Z,96592.25
2018-06-18T03:10:29.204Z,96589.88
2018-06-18T03:12:58.985Z,96593.69
2018-06-18T03:15:29.112Z,96587.88
2018-06-18T03:17:59.255Z,96581.66
2018-06-18T03:20:34.857Z,96587.88
2018-06-18T03:23:10.060Z,96592.66
2018-06-18T03:26:48.004Z,96583.42
2018-06-18T03:29:20.342Z,96581.97
2018-06-18T03:31:51.150Z,96578.32
2018-06-18T03:34:20.995Z,96575.14
2018-06-18T03:36:50.923Z,96582.45
2018-06-18T03:39:20.734Z,96588.12
2018-06-18T03:41:52.403Z,96590.70
2018-06-18T03:44:33.852Z,96584.33
2018-06-18T03:47:12.021Z,96589.37
2018-06-18T03:49:42.793Z,96592.48
2018-06-18T03:52:12.648Z,96593.77
2018-06-18T03:54:43.149Z,96592.25
2018-06-18T03:57:13.228Z,96588.39
2018-06-18T03:59:43.174Z,96594.72
2018-06-18T04:02:24.345Z,96594.45
2018-06-18T04:05:01.297Z,96597.99
2018-06-18T04:07:41.292Z,96587.59
2018-06-18T04:10:16.430Z,96590.57
2018-06-18T04:12:46.348Z,96581.30
2018-06-18T04:15:16.800Z,96588.45
2018-06-18T04:17:46.687Z,96590.52
2018-06-18T04:20:17.067Z,96599.33
2018-06-18T04:22:46.884Z,96605.55
2018-06-18T04:25:16.678Z,96606.73
2018-06-18T04:27:46.902Z,96614.89
2018-06-18T04:30:17.004Z,96618.98
2018-06-18T04:32:46.799Z,96620.20
2018-06-18T04:35:17.744Z,96609.19
2018-06-18T04:37:47.979Z,96611.33
2018-06-18T04:40:17.912Z,96611.25
2018-06-18T04:42:52.901Z,96616.84
2018-06-18T04:45:28.885Z,96612.62
2018-06-18T04:48:03.998Z,96613.41
2018-06-18T04:50:39.780Z,96613.91
2018-06-18T04:53:09.783Z,96609.93
2018-06-18T04:55:40.436Z,96610.17
2018-06-18T04:58:10.654Z,96612.39
2018-06-18T05:00:56.992Z,96617.06
2018-06-18T05:03:26.800Z,96622.02
2018-06-18T05:05:56.614Z,96626.44
2018-06-18T05:09:09.250Z,96618.81
2018-06-18T05:11:39.058Z,96621.62
2018-06-18T05:14:09.196Z,96618.31
2018-06-18T05:16:39.090Z,96618.20
2018-06-18T05:19:09.754Z,96609.98
2018-06-18T05:21:39.620Z,96616.16
2018-06-18T05:24:09.522Z,96629.97
2018-06-18T05:26:49.246Z,96628.39
2018-06-18T05:29:20.927Z,96623.87
2018-06-18T05:31:51.654Z,96619.02
2018-06-18T05:34:26.019Z,96627.05
2018-06-18T05:36:59.773Z,96633.89
2018-06-18T05:39:29.769Z,96630.23
2018-06-18T05:41:59.934Z,96636.52
2018-06-18T05:44:30.159Z,96634.01
2018-06-18T05:46:59.999Z,96627.72
2018-06-18T05:49:29.840Z,96624.92
2018-06-18T05:51:59.983Z,96631.73
2018-06-18T05:54:30.607Z,96629.02
2018-06-18T12:19:06.832Z,96633.51
2018-06-18T12:21:37.202Z,96623.87
2018-06-18T12:24:08.548Z,96619.22
2018-06-18T12:26:38.990Z,96620.28
2018-06-18T12:29:09.584Z,96629.41
2018-06-18T12:31:40.024Z,96625.22
2018-06-18T12:34:10.485Z,96624.33
2018-06-18T12:36:40.754Z,96622.02
2018-06-18T12:39:12.136Z,96624.20
2018-06-18T12:41:50.352Z,96622.28
2018-06-18T12:44:20.796Z,96621.48
2018-06-18T12:46:56.637Z,96623.02
2018-06-18T12:49:32.562Z,96614.77
2018-06-18T12:52:08.194Z,96615.92
2018-06-18T12:54:43.553Z,96614.20
2018-06-18T12:57:13.963Z,96616.92
2018-06-18T12:59:44.304Z,96617.30
2018-06-18T13:02:22.562Z,96615.56
2018-06-18T13:04:58.357Z,96611.06
2018-06-18T13:07:28.982Z,96607.70
2018-06-18T13:09:59.650Z,96612.16
2018-06-18T13:12:30.155Z,96613.35
2018-06-18T13:15:01.104Z,96611.02
2018-06-18T13:17:31.874Z,96612.09
2018-06-18T13:20:02.422Z,96604.33
2018-06-18T13:22:32.756Z,96608.38
2018-06-18T13:25:03.177Z,96602.83
2018-06-18T13:27:38.698Z,96607.34
2018-06-18T13:30:09.174Z,96608.73
2018-06-18T13:32:39.564Z,96609.49
2018-06-18T13:35:09.913Z,96605.16
2018-06-18T13:37:45.381Z,96606.98
2018-06-18T13:40:20.973Z,96599.06
2018-06-18T13:42:56.610Z,96595.21
2018-06-18T13:45:39.606Z,96588.47
2018-06-18T13:48:15.135Z,96585.29
2018-06-18T13:50:45.595Z,96590.86
2018-06-18T13:53:16.371Z,96584.72
2018-06-18T13:55:46.777Z,96580.86
2018-06-18T13:58:17.221Z,96571.39
2018-06-18T14:00:47.659Z,96579.27
2018-06-18T14:03:18.013Z,96584.97
2018-06-18T14:05:48.465Z,96581.50
2018-06-18T14:08:19.314Z,96585.02
2018-06-18T14:10:50.410Z,96585.87
2018-06-18T14:13:20.838Z,96587.80
2018-06-18T14:15:51.199Z,96584.40
2018-06-18T14:18:21.843Z,96585.64
2018-06-18T14:20:52.333Z,96577.25
2018-06-18T14:23:22.750Z,96576.27
2018-06-18T14:25:53.237Z,96579.34
2018-06-18T14:28:23.582Z,96574.48
2018-06-18T14:30:59.173Z,96569.88
2018-06-18T14:33:34.580Z,96568.66
2018-06-18T14:36:10.571Z,96562.10
2018-06-18T14:38:46.175Z,96570.44
2018-06-18T14:41:16.529Z,96562.97
2018-06-18T14:43:46.963Z,96564.69
2018-06-18T14:46:17.424Z,96555.89
2018-06-18T14:48:48.099Z,96565.84
2018-06-18T14:51:18.580Z,96555.97
2018-06-18T14:53:49.427Z,96556.06
2018-06-18T14:56:24.338Z,96561.44
2018-06-18T14:59:03.658Z,96560.95
2018-06-18T15:01:34.037Z,96554.14
2018-06-18T15:04:04.547Z,96556.03
2018-06-18T15:06:35.074Z,96563.66
2018-06-18T15:09:08.664Z,96566.84
2018-06-18T15:11:39.445Z,96563.95
2018-06-18T15:14:10.281Z,96565.58
2018-06-18T15:16:41.015Z,96567.52
2018-06-18T15:19:11.068Z,96560.16
2018-06-18T15:21:45.201Z,96554.15
2018-06-18T15:24:23.103Z,96556.48
2018-06-18T15:26:53.627Z,96555.81
2018-06-18T15:29:23.982Z,96557.69
2018-06-18T15:31:54.417Z,96558.88
2018-06-18T15:34:24.743Z,96561.63
2018-06-18T15:36:55.169Z,96561.16
2018-06-18T15:39:25.591Z,96559.97
2018-06-18T15:41:56.015Z,96564.95
2018-06-18T15:44:27.110Z,96559.11
2018-06-18T15:46:57.616Z,96562.73
2018-06-18T15:49:28.000Z,96556.13
2018-06-18T15:51:58.491Z,96554.30
2018-06-18T15:54:29.254Z,96559.46
2018-06-18T15:57:00.237Z,96561.14
2018-06-18T15:59:31.413Z,96559.71
2018-06-18T16:02:02.094Z,96556.60
2018-06-18T16:04:32.476Z,96549.58
2018-06-18T16:07:02.847Z,96554.94
2018-06-18T16:09:33.202Z,96561.00
2018-06-18T16:12:03.288Z,96553.51
2018-06-18T16:14:33.726Z,96556.37
2018-06-18T16:17:04.240Z,96556.52
2018-06-18T16:19:34.653Z,96558.03
2018-06-18T16:22:05.469Z,96557.94
2018-06-18T16:24:35.960Z,96555.77
2018-06-18T16:27:06.454Z,96560.05
2018-06-18T16:29:37.453Z,96552.72
2018-06-18T16:36:46.504Z,96556.80
2018-06-18T16:39:17.226Z,96558.34
2018-06-18T16:41:48.214Z,96560.20
2018-06-18T16:44:18.991Z,96555.02
2018-06-18T16:46:49.386Z,96557.88
2018-06-18T16:49:19.992Z,96555.55
2018-06-18T16:51:50.595Z,96559.09
2018-06-18T16:54:21.218Z,96560.78
2018-06-18T16:56:52.083Z,96559.05
2018-06-18T16:59:22.487Z,96557.75
2018-06-18T17:01:52.847Z,96556.37
2018-06-18T17:04:23.351Z,96551.62
2018-06-18T17:06:54.057Z,96556.25
2018-06-18T17:09:24.502Z,96550.75
2018-06-18T17:11:54.929Z,96555.36
2018-06-18T17:14:25.371Z,96556.19
2018-06-18T17:16:55.708Z,96560.17
2018-06-18T17:19:27.071Z,96558.69
2018-06-18T17:21:58.423Z,96557.78
2018-06-18T17:24:28.851Z,96558.00
2018-06-18T17:26:59.255Z,96555.73
2018-06-18T17:29:29.597Z,96558.54
2018-06-18T17:31:59.979Z,96558.63
2018-06-18T17:34:30.429Z,96553.69
2018-06-18T17:37:00.916Z,96558.95
2018-06-18T17:39:31.665Z,96563.47
2018-06-18T17:42:02.199Z,96565.97
2018-06-18T17:44:33.321Z,96566.55
2018-06-18T17:47:03.701Z,96572.11
2018-06-18T17:49:34.795Z,96571.38
2018-06-18T17:52:05.313Z,96575.56
2018-06-18T17:54:36.215Z,96573.74
2018-06-18T17:57:07.439Z,96575.02
2018-06-18T17:59:37.951Z,96577.97
2018-06-18T18:02:08.702Z,96570.84
2018-06-18T18:04:39.183Z,96573.33
2018-06-18T18:07:10.104Z,96574.27
2018-06-18T18:09:40.728Z,96581.23
2018-06-18T18:12:11.575Z,96573.77
2018-06-18T18:14:42.936Z,96582.64
2018-06-18T18:17:13.324Z,96575.39
2018-06-18T18:19:43.826Z,96580.50
2018-06-18T18:22:14.431Z,96586.87
2018-06-18T18:24:44.936Z,96585.78
2018-06-18T18:27:15.337Z,96584.41
2018-06-18T18:29:45.800Z,96585.45
2018-06-18T18:32:16.247Z,96579.73
2018-06-18T18:34:47.027Z,96585.61
2018-06-18T18:37:18.008Z,96586.52
2018-06-18T18:39:48.446Z,96584.04
2018-06-18T18:42:18.929Z,96596.28
2018-06-18T18:44:49.387Z,96598.09
2018-06-18T18:47:19.753Z,96594.86
2018-06-18T18:49:50.177Z,96596.26
2018-06-18T18:52:20.530Z,96597.62
2018-06-18T18:56:07.330Z,96600.23
2018-06-18T18:59:45.276Z,96596.84
2018-06-18T19:02:15.627Z,96594.33
2018-06-18T19:05:00.433Z,96594.86
2018-06-18T19:07:41.725Z,96595.29
2018-06-18T19:10:25.675Z,96593.53
2018-06-18T19:12:58.357Z,96600.72
2018-06-18T19:15:28.814Z,96607.29
2018-06-18T19:17:59.555Z,96598.41
2018-06-18T19:20:35.877Z,96599.72
2018-06-18T19:23:06.271Z,96604.66
2018-06-18T19:25:36.636Z,96614.77
2018-06-18T19:28:07.316Z,96617.17
2018-06-18T19:30:39.899Z,96619.14
2018-06-18T19:33:19.323Z,96621.20
2018-06-18T19:35:50.070Z,96621.23
2018-06-18T19:38:20.446Z,96626.14
2018-06-18T19:40:50.806Z,96632.55
2018-06-18T19:43:21.172Z,96635.13
2018-06-18T19:45:56.258Z,96630.53
2018-06-18T19:48:34.793Z,96639.30
2018-06-18T19:51:05.140Z,96640.58
2018-06-18T19:53:35.552Z,96645.68
2018-06-18T19:56:06.506Z,96645.36
2018-06-18T19:58:37.023Z,96653.34
2018-06-18T20:01:09.306Z,96654.80
2018-06-18T20:03:39.670Z,96651.55
2018-06-18T20:06:10.624Z,96660.63
2018-06-18T20:08:41.193Z,96662.93
2018-06-18T20:11:11.905Z,96662.70
2018-06-18T20:13:44.168Z,96663.80
2018-06-18T20:16:14.556Z,96662.77
2018-06-18T20:18:44.870Z,96678.01
2018-06-18T20:21:15.302Z,96675.99
2018-06-18T20:23:45.854Z,96684.97
2018-06-18T20:26:17.234Z,96680.57
2018-06-18T20:28:47.630Z,96681.20
2018-06-18T20:31:18.094Z,96686.13
2018-06-18T20:33:54.100Z,96697.75
2018-06-18T20:36:26.426Z,96693.69
2018-06-18T20:38:56.832Z,96693.28
2018-06-18T20:41:27.209Z,96697.86
2018-06-18T20:44:28.413Z,96702.13
2018-06-18T20:46:58.916Z,96699.77
2018-06-18T20:49:29.398Z,96697.59
2018-06-18T20:51:59.837Z,96701.08
2018-06-18T20:54:30.263Z,96709.72
2018-06-18T20:57:00.617Z,96706.77
2018-06-18T20:59:31.138Z,96708.16
2018-06-18T21:02:01.498Z,96715.87
2018-06-18T21:04:31.792Z,96713.55
2018-06-18T21:07:02.124Z,96710.45
2018-06-18T21:09:32.495Z,96710.78
2018-06-18T21:12:02.829Z,96714.59
2018-06-18T21:14:33.266Z,96715.34
2018-06-18T21:17:03.600Z,96716.73
2018-06-18T21:19:34.060Z,96717.00
2018-06-18T21:22:04.429Z,96715.20
2018-06-18T21:24:34.731Z,96720.80
2018-06-18T21:27:05.314Z,96721.92
2018-06-18T21:29:35.962Z,96728.17
2018-06-18T21:32:06.714Z,96726.08
2018-06-18T21:34:37.108Z,96725.73
2018-06-18T21:37:07.462Z,96728.84
2018-06-18T21:39:37.766Z,96731.79
2018-06-18T21:42:08.386Z,96735.76
2018-06-18T21:44:48.834Z,96739.63
2018-06-18T21:47:19.237Z,96736.58
2018-06-18T21:49:49.652Z,96741.38
2018-06-18T21:52:19.978Z,96736.79
2018-06-18T21:54:50.430Z,96737.76
2018-06-18T21:57:21.397Z,96736.13
2018-06-18T21:59:51.762Z,96738.70
2018-06-18T22:02:22.160Z,96744.73
2018-06-18T22:04:52.898Z,96740.52
2018-06-18T22:07:24.589Z,96740.98
2018-06-18T22:09:59.630Z,96737.76
2018-06-18T22:13:05.078Z,96741.91
2018-06-18T22:15:35.606Z,96740.66
2018-06-18T22:18:06.348Z,96744.19
2018-06-18T22:20:36.831Z,96744.09
2018-06-18T22:23:07.300Z,96747.14
2018-06-18T22:25:38.017Z,96749.14
2018-06-18T22:28:29.974Z,96746.91
2018-06-18T22:31:01.392Z,96747.57
2018-06-18T22:33:31.848Z,96743.67
2018-06-18T22:36:02.359Z,96743.49
2018-06-18T22:38:33.038Z,96744.53
2018-06-18T22:41:03.522Z,96746.05
2018-06-18T22:43:34.027Z,96745.18
2018-06-18T22:46:04.990Z,96742.55
2018-06-18T22:48:35.511Z,96744.63
2018-06-18T22:51:06.229Z,96744.25
2018-06-18T22:53:36.764Z,96744.91
2018-06-18T22:56:07.711Z,96741.87
2018-06-18T22:58:38.124Z,96741.77
2018-06-18T23:01:08.554Z,96744.16
2018-06-18T23:03:39.045Z,96749.13
2018-06-18T23:06:09.724Z,96750.80
2018-06-18T23:08:40.184Z,96752.14
2018-06-18T23:11:10.678Z,96749.09
2018-06-18T23:13:41.480Z,96750.41
2018-06-18T23:16:11.885Z,96754.77
2018-06-18T23:18:42.482Z,96752.27
2018-06-18T23:21:13.024Z,96752.08
2018-06-18T23:23:42.858Z,96749.31
2018-06-18T23:26:13.402Z,96752.38
2018-06-18T23:28:50.548Z,96747.23
2018-06-18T23:31:20.502Z,96753.73
2018-06-18T23:33:50.631Z,96757.71
2018-06-18T23:36:21.606Z,96752.58
2018-06-18T23:38:52.087Z,96756.53
2018-06-18T23:41:23.359Z,96750.46
2018-06-18T23:43:53.415Z,96759.30
2018-06-18T23:46:23.822Z,96766.84
2018-06-18T23:48:54.730Z,96753.89
2018-06-18T23:51:25.482Z,96755.16
2018-06-18T23:53:56.361Z,96756.53
